Time;durP1;ratioP1;P1;durP2;ratioP2;P2;SDS_P1;SDS_P2;PMS_P1;PMS_P2;Temp;Humidity;BMP_temperature;BMP_pressure;BME280_temperature;BME280_humidity;BME280_pressure;Samples;Min_cycle;Max_cycle;Signal;HPM_P1;HPM_P2
2021/04/06 00:01:03;;;;;;;15.32;5.97;;;;;;;;;;5098689;28;20179;-50
2021/04/06 00:03:58;;;;;;;10.75;4.47;;;;;;;;;;5098799;28;20221;-52
2021/04/06 00:06:26;;;;;;;16.42;6.10;;;;;;;;;;5098677;28;20518;-55
2021/04/06 00:08:53;;;;;;;13.23;5.10;;;;;;;;;;5099034;28;20205;-55
2021/04/06 00:14:25;;;;;;;14.50;7.50;;;;;;;;;;5099089;28;20193;-56
2021/04/06 00:16:53;;;;;;;11.70;4.80;;;;;;;;;;5099238;28;20194;-53
2021/04/06 00:22:24;;;;;;;12.05;4.57;;;;;;;;;;5110236;28;20422;-54
2021/04/06 00:24:54;;;;;;;9.50;3.70;;;;;;;;;;5118698;28;20216;-50
2021/04/06 00:27:55;;;;;;;7.05;3.75;;;;;;;;;;5119352;28;20209;-52
2021/04/06 00:30:25;;;;;;;10.40;4.63;;;;;;;;;;5117082;28;20228;-46
2021/04/06 00:32:56;;;;;;;14.38;3.78;;;;;;;;;;5118927;28;20194;-53
2021/04/06 00:35:27;;;;;;;11.40;5.10;;;;;;;;;;5118937;28;20208;-50
2021/04/06 00:37:55;;;;;;;16.48;7.78;;;;;;;;;;5118676;28;20178;-50
2021/04/06 00:40:38;;;;;;;13.10;4.75;;;;;;;;;;5118804;28;20241;-58
2021/04/06 00:43:06;;;;;;;12.50;4.38;;;;;;;;;;5118583;28;20193;-51
2021/04/06 00:45:37;;;;;;;9.70;3.83;;;;;;;;;;5135262;28;20192;-57
2021/04/06 00:48:10;;;;;;;10.38;3.00;;;;;;;;;;5139132;28;20227;-55
2021/04/06 00:50:37;;;;;;;7.93;3.63;;;;;;;;;;5121847;28;20293;-48
2021/04/06 00:53:05;;;;;;;7.60;2.80;;;;;;;;;;5117911;28;20426;-51
2021/04/06 00:55:37;;;;;;;15.55;4.68;;;;;;;;;;5119275;28;20365;-55
2021/04/06 00:58:08;;;;;;;8.77;3.85;;;;;;;;;;5118472;28;20190;-52
2021/04/06 01:00:38;;;;;;;10.15;4.15;;;;;;;;;;5118623;28;20213;-55
2021/04/06 01:03:07;;;;;;;13.65;3.67;;;;;;;;;;5118696;28;20216;-47
2021/04/06 01:05:35;;;;;;;7.13;2.38;;;;;;;;;;5118024;28;20213;-47
2021/04/06 01:08:07;;;;;;;9.88;3.25;;;;;;;;;;5116382;28;20205;-47
2021/04/06 01:10:35;;;;;;;12.02;4.88;;;;;;;;;;5114442;28;20221;-50
2021/04/06 01:13:03;;;;;;;10.07;2.53;;;;;;;;;;5117801;28;20235;-47
2021/04/06 01:15:36;;;;;;;14.90;3.78;;;;;;;;;;5106177;28;20220;-48
2021/04/06 01:18:05;;;;;;;15.20;3.85;;;;;;;;;;5097386;28;20251;-54
2021/04/06 01:20:32;;;;;;;14.52;4.30;;;;;;;;;;5097818;28;20300;-55
2021/04/06 01:23:00;;;;;;;10.90;2.63;;;;;;;;;;5097505;28;20197;-46
2021/04/06 01:25:30;;;;;;;12.95;3.67;;;;;;;;;;5097351;28;20279;-53
2021/04/06 01:27:58;;;;;;;9.82;2.95;;;;;;;;;;5097655;28;20210;-49
2021/04/06 01:30:50;;;;;;;13.50;3.78;;;;;;;;;;5097671;28;20194;-59
2021/04/06 01:33:18;;;;;;;6.20;2.65;;;;;;;;;;5098453;28;20209;-54
2021/04/06 01:35:45;;;;;;;11.80;2.92;;;;;;;;;;5097525;28;20253;-54
2021/04/06 01:41:18;;;;;;;9.65;3.42;;;;;;;;;;5097624;28;20192;-52
2021/04/06 01:43:47;;;;;;;16.48;3.70;;;;;;;;;;5096885;28;20204;-58
2021/04/06 01:46:42;;;;;;;10.80;3.92;;;;;;;;;;5096843;28;20236;-54
2021/04/06 01:49:10;;;;;;;11.10;3.40;;;;;;;;;;5114652;28;20244;-52
2021/04/06 01:51:37;;;;;;;15.63;3.90;;;;;;;;;;5117024;28;20215;-50
2021/04/06 01:54:26;;;;;;;8.45;3.28;;;;;;;;;;5115675;28;20223;-49
2021/04/06 01:56:59;;;;;;;8.10;2.80;;;;;;;;;;5114991;28;20244;-50
2021/04/06 01:59:28;;;;;;;10.25;3.63;;;;;;;;;;5116262;28;20229;-48
2021/04/06 02:01:59;;;;;;;12.70;3.50;;;;;;;;;;5116991;28;20209;-54
2021/04/06 02:04:28;;;;;;;13.85;4.13;;;;;;;;;;5114430;28;20595;-43
2021/04/06 02:06:55;;;;;;;6.88;2.70;;;;;;;;;;5116207;28;20193;-48
2021/04/06 02:09:24;;;;;;;10.30;2.67;;;;;;;;;;5116524;28;20219;-53
2021/04/06 02:11:50;;;;;;;13.40;3.35;;;;;;;;;;5116707;28;20209;-57
2021/04/06 02:14:19;;;;;;;10.30;3.60;;;;;;;;;;5116405;28;20205;-58
2021/04/06 02:17:05;;;;;;;15.07;4.50;;;;;;;;;;5117294;28;20216;-50
2021/04/06 02:19:34;;;;;;;8.52;2.70;;;;;;;;;;5117239;28;20236;-55
2021/04/06 02:22:02;;;;;;;11.63;2.60;;;;;;;;;;5116236;28;20215;-52
2021/04/06 02:24:49;;;;;;;13.38;3.65;;;;;;;;;;5116905;28;20209;-55
2021/04/06 02:27:18;;;;;;;13.25;3.35;;;;;;;;;;5116400;28;20209;-47
2021/04/06 02:29:46;;;;;;;23.50;4.15;;;;;;;;;;5117015;28;20275;-50
2021/04/06 02:32:44;;;;;;;20.98;4.75;;;;;;;;;;5117303;28;20201;-50
2021/04/06 02:35:12;;;;;;;11.38;3.55;;;;;;;;;;5116544;28;20210;-51
2021/04/06 02:37:41;;;;;;;5.90;2.88;;;;;;;;;;5116833;28;20209;-47
2021/04/06 02:40:21;;;;;;;20.77;4.35;;;;;;;;;;5116842;28;20247;-50
2021/04/06 02:42:48;;;;;;;8.20;3.45;;;;;;;;;;5114661;28;20220;-49
2021/04/06 02:45:17;;;;;;;19.35;3.17;;;;;;;;;;5116571;28;20258;-54
2021/04/06 02:47:52;;;;;;;12.98;4.60;;;;;;;;;;5116668;28;20236;-53
2021/04/06 02:50:22;;;;;;;11.73;2.78;;;;;;;;;;5116843;28;20264;-52
2021/04/06 02:52:49;;;;;;;12.95;3.55;;;;;;;;;;5116221;28;20205;-55
2021/04/06 02:55:17;;;;;;;12.70;2.80;;;;;;;;;;5116355;28;20209;-51
2021/04/06 02:57:45;;;;;;;9.68;2.78;;;;;;;;;;5116305;28;20591;-50
2021/04/06 03:00:31;;;;;;;5.75;2.67;;;;;;;;;;5116141;28;20224;-51
2021/04/06 03:03:20;;;;;;;7.80;2.65;;;;;;;;;;5116176;28;20213;-52
2021/04/06 03:05:48;;;;;;;9.48;2.72;;;;;;;;;;5113626;28;20275;-56
2021/04/06 03:08:14;;;;;;;13.82;2.85;;;;;;;;;;5114396;28;20201;-54
2021/04/06 03:10:55;;;;;;;8.00;4.30;;;;;;;;;;5115250;28;20306;-55
2021/04/06 03:13:24;;;;;;;9.85;3.95;;;;;;;;;;5115409;28;20217;-56
2021/04/06 03:15:52;;;;;;;11.13;2.30;;;;;;;;;;5114616;28;20189;-56
2021/04/06 03:18:21;;;;;;;20.48;3.55;;;;;;;;;;5115496;28;20197;-53
2021/04/06 03:20:48;;;;;;;5.93;3.00;;;;;;;;;;5115391;28;20301;-48
2021/04/06 03:23:36;;;;;;;21.10;4.03;;;;;;;;;;5115038;28;20204;-51
2021/04/06 03:26:04;;;;;;;14.05;3.35;;;;;;;;;;5121218;28;20197;-54
2021/04/06 03:28:32;;;;;;;7.88;3.28;;;;;;;;;;5136104;28;20227;-51
2021/04/06 03:31:30;;;;;;;6.95;2.97;;;;;;;;;;5136110;28;20177;-50
2021/04/06 03:34:00;;;;;;;15.55;3.53;;;;;;;;;;5135854;28;20272;-48
2021/04/06 03:36:28;;;;;;;13.35;3.15;;;;;;;;;;5118155;28;20208;-53
2021/04/06 03:39:03;;;;;;;11.25;3.10;;;;;;;;;;5118255;28;20236;-48
2021/04/06 03:41:30;;;;;;;16.05;3.10;;;;;;;;;;5118098;28;20219;-51
2021/04/06 03:44:04;;;;;;;19.10;3.75;;;;;;;;;;5118159;28;20201;-59
2021/04/06 03:49:35;;;;;;;9.60;3.53;;;;;;;;;;5092325;28;698112;-49
2021/04/06 03:52:05;;;;;;;7.78;3.22;;;;;;;;;;5119397;28;20197;-52
2021/04/06 03:57:39;;;;;;;16.20;4.75;;;;;;;;;;5118088;28;20207;-55
2021/04/06 04:00:08;;;;;;;12.88;4.78;;;;;;;;;;5119398;28;20229;-55
2021/04/06 04:03:05;;;;;;;11.90;5.55;;;;;;;;;;5136157;27;20189;-59
2021/04/06 04:05:33;;;;;;;7.97;4.47;;;;;;;;;;5114791;27;20292;-57
2021/04/06 04:08:00;;;;;;;14.70;6.03;;;;;;;;;;5098744;28;20233;-56
2021/04/06 04:10:46;;;;;;;12.27;5.05;;;;;;;;;;5102622;28;20217;-56
2021/04/06 04:13:13;;;;;;;15.15;5.30;;;;;;;;;;5118889;28;20228;-57
2021/04/06 04:15:50;;;;;;;11.93;6.95;;;;;;;;;;5119491;28;20188;-57
2021/04/06 04:18:30;;;;;;;9.82;5.25;;;;;;;;;;5128769;28;20188;-54
2021/04/06 04:20:58;;;;;;;13.55;4.68;;;;;;;;;;5127346;28;20224;-53
2021/04/06 04:23:25;;;;;;;18.55;5.97;;;;;;;;;;5118937;28;20235;-55
2021/04/06 04:26:39;;;;;;;11.93;4.65;;;;;;;;;;5117944;28;20211;-58
2021/04/06 04:29:06;;;;;;;10.82;5.18;;;;;;;;;;5116808;28;20280;-53
2021/04/06 04:31:32;;;;;;;10.70;5.32;;;;;;;;;;5118973;28;20186;-53
2021/04/06 04:33:59;;;;;;;15.40;6.15;;;;;;;;;;5117721;28;20205;-51
2021/04/06 04:36:28;;;;;;;11.23;5.45;;;;;;;;;;5118245;28;20231;-48
2021/04/06 04:38:56;;;;;;;10.05;4.80;;;;;;;;;;5104350;28;20349;-52
2021/04/06 04:41:23;;;;;;;13.15;4.75;;;;;;;;;;5103418;28;20215;-52
2021/04/06 04:43:52;;;;;;;14.95;5.43;;;;;;;;;;5117682;28;20185;-56
2021/04/06 04:46:46;;;;;;;17.25;5.82;;;;;;;;;;5117092;28;20201;-55
2021/04/06 04:49:15;;;;;;;9.43;4.90;;;;;;;;;;5117429;28;20209;-51
2021/04/06 04:51:43;;;;;;;13.30;4.97;;;;;;;;;;5118061;28;20256;-55
2021/04/06 04:54:13;;;;;;;13.95;5.15;;;;;;;;;;5133498;28;20177;-51
2021/04/06 04:56:40;;;;;;;13.07;5.20;;;;;;;;;;5138319;27;20201;-56
2021/04/06 04:59:07;;;;;;;17.27;5.10;;;;;;;;;;5138589;28;20236;-52
2021/04/06 05:01:39;;;;;;;16.40;4.47;;;;;;;;;;5135159;28;20213;-53
2021/04/06 05:04:06;;;;;;;8.23;4.10;;;;;;;;;;5117761;28;20270;-55
2021/04/06 05:06:34;;;;;;;9.40;4.22;;;;;;;;;;5117840;28;20231;-56
2021/04/06 05:09:07;;;;;;;15.32;4.63;;;;;;;;;;5118126;28;20245;-53
2021/04/06 05:11:35;;;;;;;11.70;2.90;;;;;;;;;;5117392;28;20189;-52
2021/04/06 05:14:04;;;;;;;11.43;3.60;;;;;;;;;;5104679;28;20201;-55
2021/04/06 05:16:46;;;;;;;8.70;3.20;;;;;;;;;;5117862;28;20263;-57
2021/04/06 05:19:12;;;;;;;11.05;2.58;;;;;;;;;;5118303;28;20221;-55
2021/04/06 05:21:39;;;;;;;9.52;3.60;;;;;;;;;;5102727;28;20300;-49
2021/04/06 05:24:36;;;;;;;18.60;3.22;;;;;;;;;;5110757;28;20243;-54
2021/04/06 05:27:05;;;;;;;7.22;2.50;;;;;;;;;;5106315;28;20259;-54
2021/04/06 05:29:32;;;;;;;9.35;3.58;;;;;;;;;;5107260;28;20243;-58
2021/04/06 05:32:30;;;;;;;12.70;3.15;;;;;;;;;;5107378;28;20434;-52
2021/04/06 05:34:58;;;;;;;7.32;4.07;;;;;;;;;;5102890;28;20259;-55
2021/04/06 05:37:25;;;;;;;12.20;3.03;;;;;;;;;;5110635;28;20200;-52
2021/04/06 05:39:53;;;;;;;14.80;5.55;;;;;;;;;;5116615;28;20284;-54
2021/04/06 05:42:22;;;;;;;13.77;3.42;;;;;;;;;;5116754;28;20200;-57
2021/04/06 05:45:07;;;;;;;9.75;2.80;;;;;;;;;;5117181;28;20209;-55
2021/04/06 05:47:41;;;;;;;10.23;5.38;;;;;;;;;;5117078;28;20201;-54
2021/04/06 05:50:08;;;;;;;6.50;2.25;;;;;;;;;;5116654;28;20212;-52
2021/04/06 05:52:58;;;;;;;13.57;5.43;;;;;;;;;;5116078;28;20201;-55
2021/04/06 05:55:26;;;;;;;10.02;3.05;;;;;;;;;;5116448;28;20197;-53
2021/04/06 05:57:55;;;;;;;9.35;3.78;;;;;;;;;;5115791;28;20201;-54
2021/04/06 06:00:32;;;;;;;9.73;3.15;;;;;;;;;;5116145;28;20280;-53
2021/04/06 06:03:01;;;;;;;15.82;3.03;;;;;;;;;;5116425;28;20246;-58
2021/04/06 06:05:28;;;;;;;11.20;2.72;;;;;;;;;;5114954;28;20193;-56
2021/04/06 06:08:13;;;;;;;10.45;2.60;;;;;;;;;;5116100;28;20181;-56
2021/04/06 06:10:41;;;;;;;6.70;2.55;;;;;;;;;;5115219;28;20198;-54
2021/04/06 06:13:18;;;;;;;6.03;3.08;;;;;;;;;;5109071;28;20181;-53
2021/04/06 06:19:02;;;;;;;10.60;3.03;;;;;;;;;;5114229;28;20243;-55
2021/04/06 06:21:40;;;;;;;14.35;2.95;;;;;;;;;;5116430;28;20228;-57
2021/04/06 06:24:25;;;;;;;8.57;3.33;;;;;;;;;;5115505;28;20181;-56
2021/04/06 06:26:52;;;;;;;9.60;3.47;;;;;;;;;;5114955;28;20208;-52
2021/04/06 06:29:22;;;;;;;13.02;4.22;;;;;;;;;;5116363;28;20193;-55
2021/04/06 06:32:16;;;;;;;10.77;2.58;;;;;;;;;;5114024;28;20274;-55
2021/04/06 06:34:51;;;;;;;9.93;3.30;;;;;;;;;;5115488;28;20193;-51
2021/04/06 06:37:54;;;;;;;10.57;3.55;;;;;;;;;;5115572;28;20244;-58
2021/04/06 06:40:40;;;;;;;8.00;3.10;;;;;;;;;;5107139;28;20250;-52
2021/04/06 06:43:11;;;;;;;15.80;3.65;;;;;;;;;;5115330;28;20206;-57
2021/04/06 06:45:47;;;;;;;12.93;4.05;;;;;;;;;;5116248;28;20197;-54
2021/04/06 06:48:26;;;;;;;11.82;5.75;;;;;;;;;;5115172;28;20189;-54
2021/04/06 06:50:53;;;;;;;9.25;3.08;;;;;;;;;;5095299;28;20190;-54
2021/04/06 06:53:36;;;;;;;9.88;4.40;;;;;;;;;;5106761;28;20220;-57
2021/04/06 06:56:28;;;;;;;6.75;3.05;;;;;;;;;;5114221;28;20201;-55
2021/04/06 06:58:55;;;;;;;10.90;3.63;;;;;;;;;;5115349;28;20220;-58
2021/04/06 07:01:25;;;;;;;12.52;3.05;;;;;;;;;;5115248;28;20202;-55
2021/04/06 07:07:05;;;;;;;8.30;3.05;;;;;;;;;;5114303;28;20215;-48
2021/04/06 07:09:32;;;;;;;13.50;3.45;;;;;;;;;;5094837;28;20247;-54
2021/04/06 07:12:00;;;;;;;7.18;3.10;;;;;;;;;;5105345;28;20189;-56
2021/04/06 07:14:28;;;;;;;10.48;3.03;;;;;;;;;;5115053;28;20205;-57
2021/04/06 07:17:13;;;;;;;11.68;3.75;;;;;;;;;;5114898;28;20197;-53
2021/04/06 07:19:44;;;;;;;7.15;2.72;;;;;;;;;;5115545;28;20247;-57
2021/04/06 07:22:14;;;;;;;9.23;4.00;;;;;;;;;;5115209;28;20225;-56
2021/04/06 07:24:45;;;;;;;9.93;4.20;;;;;;;;;;5115395;28;20211;-54
2021/04/06 07:27:13;;;;;;;8.95;4.22;;;;;;;;;;5114945;28;20191;-50
2021/04/06 07:29:43;;;;;;;9.75;3.45;;;;;;;;;;5114516;28;20253;-49
2021/04/06 07:32:14;;;;;;;10.30;3.90;;;;;;;;;;5113655;28;20190;-59
2021/04/06 07:34:50;;;;;;;5.57;3.53;;;;;;;;;;5114697;28;20189;-56
2021/04/06 07:37:18;;;;;;;17.13;3.90;;;;;;;;;;5114937;28;20276;-59
2021/04/06 07:39:48;;;;;;;6.68;3.60;;;;;;;;;;5114713;28;20267;-56
2021/04/06 07:42:15;;;;;;;15.43;4.13;;;;;;;;;;5114912;28;20200;-51
2021/04/06 07:44:57;;;;;;;16.05;5.13;;;;;;;;;;5114487;28;20257;-57
2021/04/06 07:47:36;;;;;;;6.15;3.33;;;;;;;;;;5114361;28;20204;-51
2021/04/06 07:50:03;;;;;;;14.40;3.53;;;;;;;;;;5115158;28;20205;-50
2021/04/06 07:53:25;;;;;;;8.75;3.20;;;;;;;;;;5115095;28;20203;-54
2021/04/06 07:56:08;;;;;;;6.93;2.90;;;;;;;;;;5115365;28;20250;-54
2021/04/06 07:59:04;;;;;;;7.20;2.55;;;;;;;;;;5112598;28;20206;-54
2021/04/06 08:01:32;;;;;;;113.88;55.45;;;;;;;;;;5104236;28;20225;-55
2021/04/06 08:04:07;;;;;;;17.08;3.75;;;;;;;;;;5094315;28;20202;-54
2021/04/06 08:07:00;;;;;;;9.15;3.05;;;;;;;;;;5094392;28;20283;-51
2021/04/06 08:09:42;;;;;;;10.60;3.63;;;;;;;;;;5105938;28;20384;-56
2021/04/06 08:12:10;;;;;;;11.40;3.53;;;;;;;;;;5117940;28;20208;-53
2021/04/06 08:14:38;;;;;;;10.70;3.22;;;;;;;;;;5135246;28;20278;-55
2021/04/06 08:17:20;;;;;;;11.18;3.45;;;;;;;;;;5134652;28;20253;-58
2021/04/06 08:19:58;;;;;;;10.60;3.55;;;;;;;;;;5123137;28;20224;-56
2021/04/06 08:22:26;;;;;;;12.55;3.90;;;;;;;;;;5118608;28;20197;-51
2021/04/06 08:24:53;;;;;;;7.85;2.80;;;;;;;;;;5118504;28;20193;-57
2021/04/06 08:27:37;;;;;;;12.18;3.22;;;;;;;;;;5118315;28;20215;-53
2021/04/06 08:30:19;;;;;;;16.27;3.00;;;;;;;;;;5118632;28;20256;-47
2021/04/06 08:33:13;;;;;;;10.90;3.28;;;;;;;;;;5117728;28;20201;-47
2021/04/06 08:35:59;;;;;;;10.20;2.05;;;;;;;;;;5118142;28;20208;-55
2021/04/06 08:38:46;;;;;;;7.10;2.28;;;;;;;;;;5118583;28;20240;-56
2021/04/06 08:41:36;;;;;;;22.95;5.95;;;;;;;;;;5117618;28;20232;-57
2021/04/06 08:44:06;;;;;;;11.80;2.88;;;;;;;;;;5112521;28;20248;-50
2021/04/06 08:46:51;;;;;;;10.13;3.10;;;;;;;;;;5117920;28;20185;-54
2021/04/06 08:49:20;;;;;;;5.22;2.22;;;;;;;;;;5115193;28;20199;-55
2021/04/06 08:52:04;;;;;;;16.73;2.60;;;;;;;;;;5118703;28;20212;-53
2021/04/06 08:54:34;;;;;;;9.15;2.95;;;;;;;;;;5118167;28;20185;-52
2021/04/06 08:57:03;;;;;;;7.38;1.73;;;;;;;;;;5117173;28;20203;-55
2021/04/06 08:59:37;;;;;;;6.32;2.03;;;;;;;;;;5096948;28;20243;-55
2021/04/06 09:02:08;;;;;;;11.50;3.25;;;;;;;;;;5113697;28;20199;-56
2021/04/06 09:04:40;;;;;;;3.58;1.40;;;;;;;;;;5117385;28;20198;-55
2021/04/06 09:07:45;;;;;;;6.93;2.53;;;;;;;;;;5117566;28;20278;-48
2021/04/06 09:10:13;;;;;;;10.48;3.78;;;;;;;;;;5117462;28;20258;-58
2021/04/06 09:12:50;;;;;;;11.70;3.55;;;;;;;;;;5117896;28;20303;-56
2021/04/06 09:15:36;;;;;;;6.07;3.03;;;;;;;;;;5118218;28;20192;-55
2021/04/06 09:18:06;;;;;;;20.45;6.43;;;;;;;;;;5114600;28;20229;-54
2021/04/06 09:20:33;;;;;;;6.88;3.10;;;;;;;;;;5116313;28;20294;-55
2021/04/06 09:23:02;;;;;;;9.77;4.40;;;;;;;;;;5116352;28;20211;-56
2021/04/06 09:25:30;;;;;;;8.32;3.00;;;;;;;;;;5131432;28;20242;-57
2021/04/06 09:28:04;;;;;;;4.60;2.15;;;;;;;;;;5118955;28;20188;-55
2021/04/06 09:30:43;;;;;;;8.52;3.03;;;;;;;;;;5095993;28;20336;-55
2021/04/06 09:33:20;;;;;;;5.38;2.40;;;;;;;;;;5095784;28;20189;-52
2021/04/06 09:35:48;;;;;;;9.07;3.13;;;;;;;;;;5096629;28;20251;-52
2021/04/06 09:38:40;;;;;;;10.90;3.83;;;;;;;;;;5100177;28;20266;-54
2021/04/06 09:41:31;;;;;;;5.53;2.40;;;;;;;;;;5096344;28;20228;-56
2021/04/06 09:43:59;;;;;;;8.90;3.67;;;;;;;;;;5113950;28;20236;-54
2021/04/06 09:46:40;;;;;;;11.70;2.53;;;;;;;;;;5116278;28;20202;-56
2021/04/06 09:49:09;;;;;;;7.82;2.90;;;;;;;;;;5106683;28;20216;-59
2021/04/06 09:51:39;;;;;;;8.05;2.40;;;;;;;;;;5116027;28;20225;-55
2021/04/06 09:54:42;;;;;;;10.75;3.83;;;;;;;;;;5115962;28;20304;-57
2021/04/06 09:57:12;;;;;;;9.55;2.20;;;;;;;;;;5115788;28;20208;-53
2021/04/06 09:59:41;;;;;;;5.78;2.67;;;;;;;;;;5115562;28;20202;-52
2021/04/06 10:02:32;;;;;;;5.20;2.20;;;;;;;;;;5115736;28;20239;-57
2021/04/06 10:04:59;;;;;;;8.57;2.92;;;;;;;;;;5112642;28;20206;-55
2021/04/06 10:07:27;;;;;;;7.28;2.35;;;;;;;;;;5114982;28;20376;-59
2021/04/06 10:09:56;;;;;;;5.65;2.60;;;;;;;;;;5112919;28;20197;-56
2021/04/06 10:12:34;;;;;;;5.30;2.88;;;;;;;;;;5099574;28;20209;-53
2021/04/06 10:15:19;;;;;;;8.05;2.50;;;;;;;;;;5108366;28;20207;-57
2021/04/06 10:17:56;;;;;;;6.55;2.47;;;;;;;;;;5115616;28;20194;-54
2021/04/06 10:20:27;;;;;;;4.68;2.83;;;;;;;;;;5109920;28;20247;-56
2021/04/06 10:22:56;;;;;;;8.85;4.35;;;;;;;;;;5114365;28;20295;-58
2021/04/06 10:25:33;;;;;;;7.47;3.20;;;;;;;;;;5112777;28;20205;-59
2021/04/06 10:28:01;;;;;;;9.80;3.97;;;;;;;;;;5095918;28;20260;-54
2021/04/06 10:30:36;;;;;;;7.72;2.60;;;;;;;;;;5095121;28;20265;-57
2021/04/06 10:33:15;;;;;;;7.18;2.72;;;;;;;;;;5111167;28;20209;-57
2021/04/06 10:36:03;;;;;;;4.78;2.70;;;;;;;;;;5113761;28;20255;-56
2021/04/06 10:38:58;;;;;;;6.80;2.80;;;;;;;;;;5116262;28;20189;-53
2021/04/06 10:41:27;;;;;;;6.00;2.83;;;;;;;;;;5102098;28;20216;-52
2021/04/06 10:43:55;;;;;;;8.70;2.42;;;;;;;;;;5114889;28;20265;-55
2021/04/06 10:46:51;;;;;;;7.45;3.38;;;;;;;;;;5115082;28;20201;-50
2021/04/06 10:49:19;;;;;;;7.15;3.10;;;;;;;;;;5115200;28;20193;-51
2021/04/06 10:51:50;;;;;;;5.97;3.38;;;;;;;;;;5115228;28;20265;-54
2021/04/06 10:54:36;;;;;;;5.15;3.08;;;;;;;;;;5110561;28;20292;-53
2021/04/06 10:57:05;;;;;;;9.60;2.38;;;;;;;;;;5114817;28;20253;-57
2021/04/06 10:59:38;;;;;;;5.55;2.45;;;;;;;;;;5113630;28;20423;-60
2021/04/06 11:02:10;;;;;;;6.68;2.33;;;;;;;;;;5111242;28;20266;-56
2021/04/06 11:04:42;;;;;;;5.20;2.80;;;;;;;;;;5113892;28;20255;-57
2021/04/06 11:07:12;;;;;;;7.00;2.15;;;;;;;;;;5113401;28;20188;-56
2021/04/06 11:09:41;;;;;;;5.25;1.75;;;;;;;;;;5112303;28;20199;-52
2021/04/06 11:18:28;;;;;;;5.82;2.58;;;;;;;;;;5121652;28;20373;-53
2021/04/06 11:20:56;;;;;;;5.75;1.90;;;;;;;;;;5113992;28;20209;-51
2021/04/06 11:23:23;;;;;;;3.65;1.75;;;;;;;;;;5113949;28;20209;-55
2021/04/06 11:25:53;;;;;;;4.60;2.08;;;;;;;;;;5114911;28;20205;-55
2021/04/06 11:28:20;;;;;;;7.07;2.38;;;;;;;;;;5114060;28;20241;-60
2021/04/06 11:30:55;;;;;;;7.30;2.22;;;;;;;;;;5099508;28;20273;-49
2021/04/06 11:33:22;;;;;;;4.32;2.03;;;;;;;;;;5109089;28;20222;-51
2021/04/06 11:35:50;;;;;;;5.53;2.20;;;;;;;;;;5113982;28;20237;-48
2021/04/06 11:38:31;;;;;;;6.72;2.10;;;;;;;;;;5115046;28;20207;-58
2021/04/06 11:40:58;;;;;;;6.78;2.25;;;;;;;;;;5113799;28;20225;-55
2021/04/06 11:43:25;;;;;;;4.63;1.58;;;;;;;;;;5114054;28;20208;-58
2021/04/06 11:46:06;;;;;;;7.30;2.17;;;;;;;;;;5107780;28;20206;-55
2021/04/06 11:48:33;;;;;;;5.03;1.90;;;;;;;;;;5115221;28;20252;-59
2021/04/06 11:51:01;;;;;;;4.55;1.67;;;;;;;;;;5113577;28;20339;-48
2021/04/06 11:53:57;;;;;;;7.25;2.10;;;;;;;;;;5113743;28;20205;-50
2021/04/06 11:56:24;;;;;;;5.75;2.38;;;;;;;;;;5114358;28;20220;-59
2021/04/06 11:59:06;;;;;;;5.15;2.47;;;;;;;;;;5118093;28;20217;-55
2021/04/06 12:02:16;;;;;;;8.90;2.80;;;;;;;;;;5118491;28;20220;-51
2021/04/06 12:04:42;;;;;;;6.35;2.40;;;;;;;;;;5116386;28;20221;-54
2021/04/06 12:07:09;;;;;;;5.47;3.72;;;;;;;;;;5119063;28;20209;-55
2021/04/06 12:12:41;;;;;;;4.30;2.22;;;;;;;;;;5116899;28;20215;-51
2021/04/06 12:15:18;;;;;;;5.15;2.08;;;;;;;;;;5120107;28;20201;-53
2021/04/06 12:18:05;;;;;;;3.67;1.50;;;;;;;;;;5119077;28;20282;-50
2021/04/06 12:20:32;;;;;;;3.80;1.75;;;;;;;;;;5109817;28;20257;-55
2021/04/06 12:22:59;;;;;;;5.57;1.90;;;;;;;;;;5098192;28;20206;-54
2021/04/06 12:25:56;;;;;;;9.65;2.70;;;;;;;;;;5098662;28;20194;-48
2021/04/06 12:28:24;;;;;;;6.68;2.80;;;;;;;;;;5108900;28;20240;-57
2021/04/06 12:30:52;;;;;;;7.10;2.75;;;;;;;;;;5119044;28;20206;-56
2021/04/06 12:36:23;;;;;;;3.72;2.30;;;;;;;;;;5109575;28;20250;-56
2021/04/06 12:38:52;;;;;;;7.35;2.17;;;;;;;;;;5118744;28;20278;-54
2021/04/06 12:41:19;;;;;;;3.38;1.90;;;;;;;;;;5117644;28;20217;-54
2021/04/06 12:43:56;;;;;;;6.13;2.35;;;;;;;;;;5118352;28;20198;-56
2021/04/06 12:46:23;;;;;;;4.40;2.17;;;;;;;;;;5118326;28;20251;-53
2021/04/06 12:48:52;;;;;;;5.60;2.60;;;;;;;;;;5119344;28;20203;-54
2021/04/06 12:51:21;;;;;;;12.77;3.78;;;;;;;;;;5118727;28;20203;-55
2021/04/06 12:53:59;;;;;;;7.63;3.53;;;;;;;;;;5119119;28;20219;-52
2021/04/06 12:56:26;;;;;;;6.50;3.10;;;;;;;;;;5109354;28;20281;-53
2021/04/06 12:58:57;;;;;;;5.85;3.20;;;;;;;;;;5118265;28;20552;-54
2021/04/06 13:01:56;;;;;;;9.23;3.55;;;;;;;;;;5099952;28;20230;-56
2021/04/06 13:04:30;;;;;;;3.80;2.55;;;;;;;;;;5109821;28;20245;-56
2021/04/06 13:06:57;;;;;;;9.20;3.08;;;;;;;;;;5117817;28;20229;-56
2021/04/06 13:12:59;;;;;;;6.80;3.40;;;;;;;;;;5117271;28;20305;-50
2021/04/06 13:15:33;;;;;;;7.95;3.53;;;;;;;;;;5098771;28;20206;-52
2021/04/06 13:18:09;;;;;;;7.57;2.70;;;;;;;;;;5112495;28;20201;-57
2021/04/06 13:20:36;;;;;;;15.05;4.00;;;;;;;;;;5121525;28;20229;-60
2021/04/06 13:23:04;;;;;;;7.68;2.72;;;;;;;;;;5117100;28;20201;-54
2021/04/06 13:28:37;;;;;;;6.50;2.65;;;;;;;;;;5115796;28;20288;-60
2021/04/06 13:31:10;;;;;;;5.80;2.13;;;;;;;;;;5116929;28;20189;-57
2021/04/06 13:36:41;;;;;;;4.30;1.90;;;;;;;;;;5114761;28;20290;-54
2021/04/06 13:39:10;;;;;;;2.67;1.13;;;;;;;;;;5116339;28;20344;-57
2021/04/06 13:41:55;;;;;;;4.20;2.35;;;;;;;;;;5116774;28;20221;-56
2021/04/06 13:44:24;;;;;;;8.40;1.95;;;;;;;;;;5114931;28;20240;-53
2021/04/06 13:46:55;;;;;;;5.57;1.70;;;;;;;;;;5114495;28;20252;-59
2021/04/06 13:52:32;;;;;;;2.20;1.17;;;;;;;;;;5115810;28;20307;-60
2021/04/06 13:55:06;;;;;;;4.25;2.42;;;;;;;;;;5112531;28;20210;-54
2021/04/06 13:57:51;;;;;;;5.68;3.15;;;;;;;;;;5119093;28;20211;-50
2021/04/06 14:00:20;;;;;;;5.82;1.80;;;;;;;;;;5117131;28;20268;-55
2021/04/06 14:02:48;;;;;;;3.42;1.80;;;;;;;;;;5099279;28;20210;-54
2021/04/06 14:05:19;;;;;;;5.00;2.33;;;;;;;;;;5096913;28;20198;-53
2021/04/06 14:07:46;;;;;;;5.75;2.60;;;;;;;;;;5096914;28;20198;-56
2021/04/06 14:10:16;;;;;;;10.95;1.60;;;;;;;;;;5097145;28;20231;-55
2021/04/06 14:12:50;;;;;;;6.20;1.85;;;;;;;;;;5097195;28;20206;-54
2021/04/06 14:15:18;;;;;;;6.32;2.85;;;;;;;;;;5101168;28;20212;-55
2021/04/06 14:17:46;;;;;;;5.05;1.88;;;;;;;;;;5116696;28;20217;-55
2021/04/06 14:20:18;;;;;;;2.60;1.25;;;;;;;;;;5112510;28;20288;-58
2021/04/06 14:22:46;;;;;;;3.28;1.08;;;;;;;;;;5109669;28;20189;-54
2021/04/06 14:25:14;;;;;;;2.70;1.25;;;;;;;;;;5115278;28;20259;-52
2021/04/06 14:27:42;;;;;;;3.53;1.65;;;;;;;;;;5117331;28;20190;-54
2021/04/06 14:30:15;;;;;;;2.97;1.60;;;;;;;;;;5116746;28;20200;-60
2021/04/06 14:32:42;;;;;;;6.03;2.00;;;;;;;;;;5116998;28;20205;-54
2021/04/06 14:35:10;;;;;;;5.85;1.70;;;;;;;;;;5116410;28;20194;-56
2021/04/06 14:38:02;;;;;;;3.17;2.00;;;;;;;;;;5116710;28;20260;-58
2021/04/06 14:40:49;;;;;;;9.05;2.58;;;;;;;;;;5105704;28;20229;-56
2021/04/06 14:43:19;;;;;;;4.97;2.00;;;;;;;;;;5117243;28;20193;-54
2021/04/06 14:51:23;;;;;;;4.07;2.38;;;;;;;;;;5120536;28;20259;-59
2021/04/06 14:53:52;;;;;;;6.85;3.08;;;;;;;;;;5137277;28;20192;-50
2021/04/06 14:56:23;;;;;;;7.90;2.67;;;;;;;;;;5137276;28;20213;-51
2021/04/06 14:58:51;;;;;;;6.55;2.53;;;;;;;;;;5150571;27;20244;-58
2021/04/06 15:01:27;;;;;;;5.18;3.17;;;;;;;;;;5157791;27;20215;-53
2021/04/06 15:03:57;;;;;;;4.72;2.28;;;;;;;;;;5137922;28;20193;-57
2021/04/06 15:06:28;;;;;;;7.35;2.30;;;;;;;;;;5137353;27;20192;-51
2021/04/06 15:08:56;;;;;;;7.93;2.30;;;;;;;;;;5137305;28;20193;-55
2021/04/06 15:11:28;;;;;;;6.15;3.30;;;;;;;;;;5137053;28;20204;-63
2021/04/06 15:14:07;;;;;;;3.95;2.47;;;;;;;;;;5115465;28;20264;-52
2021/04/06 15:16:34;;;;;;;2.70;1.60;;;;;;;;;;5123401;28;20215;-52
2021/04/06 15:19:19;;;;;;;4.53;1.50;;;;;;;;;;5137179;28;20230;-53
2021/04/06 15:21:51;;;;;;;3.92;1.90;;;;;;;;;;5136773;28;20232;-52
2021/04/06 15:25:08;;;;;;;7.38;1.77;;;;;;;;;;5137081;28;20193;-60
2021/04/06 15:27:43;;;;;;;2.60;1.58;;;;;;;;;;5129761;28;20256;-57
2021/04/06 15:30:13;;;;;;;7.18;3.53;;;;;;;;;;5133529;28;20216;-53
2021/04/06 15:32:42;;;;;;;10.40;4.53;;;;;;;;;;5140189;28;20193;-54
2021/04/06 15:38:21;;;;;;;6.65;3.70;;;;;;;;;;5140799;28;20245;-58
2021/04/06 15:40:51;;;;;;;3.50;1.70;;;;;;;;;;5140972;28;20223;-52
2021/04/06 15:43:39;;;;;;;7.93;5.55;;;;;;;;;;5141128;28;20200;-56
2021/04/06 15:46:07;;;;;;;6.60;1.90;;;;;;;;;;5139743;28;20196;-51
2021/04/06 15:48:35;;;;;;;5.82;2.30;;;;;;;;;;5137862;28;20256;-54
2021/04/06 15:51:04;;;;;;;3.30;1.65;;;;;;;;;;5141133;28;20204;-61
2021/04/06 15:53:32;;;;;;;3.80;1.33;;;;;;;;;;5129771;28;20248;-49
2021/04/06 15:56:08;;;;;;;7.10;2.80;;;;;;;;;;5125570;28;20208;-54
2021/04/06 16:01:42;;;;;;;6.22;2.85;;;;;;;;;;5140855;27;20207;-60
2021/04/06 16:07:21;;;;;;;6.32;2.78;;;;;;;;;;5139806;27;20214;-58
2021/04/06 16:09:57;;;;;;;3.63;2.05;;;;;;;;;;5140400;27;20188;-55
2021/04/06 16:12:26;;;;;;;9.07;1.80;;;;;;;;;;5111481;28;20232;-57
2021/04/06 16:14:54;;;;;;;2.97;1.83;;;;;;;;;;5089921;28;20230;-57
2021/04/06 16:17:23;;;;;;;3.67;1.38;;;;;;;;;;5099905;28;20273;-57
2021/04/06 16:20:28;;;;;;;3.92;1.33;;;;;;;;;;5099335;28;20229;-56